< < Back
Terminal Aerodrome Forecast


Current Version              Previous Versions:   1  2  3  4  5  6  7  8  9  

Terminal Aerodrome Forecast

066
FTUS44 KMOB 291721
TAFMOB
TAF
KMOB 291721Z 2918/3018 11012KT P6SM FEW250
     FM291900 16011KT P6SM BKN040
     FM300900 17003KT 4SM BR SCT025 SCT250
     FM301500 24008KT P6SM VCSH BKN025=

Latest METAR

147
SAUS80 KWBC 291800 RRI
MTRMOB
METAR KMOB 291856Z 16011KT 10SM BKN038 BKN250 20/11 A3031 RMK AO2 SLP261
T02000106


USA.gov is the U.S. government's official web portal to all federal, state and local government web resources and services.